Time;durP1;ratioP1;P1;durP2;ratioP2;P2;SDS_P1;SDS_P2;PMS_P1;PMS_P2;Temp;Humidity;BMP_temperature;BMP_pressure;BME280_temperature;BME280_humidity;BME280_pressure;Samples;Min_cycle;Max_cycle;Signal;HPM_P1;HPM_P2
2023/10/06 00:01:42;;;;;;;6.30;3.50;;;13.40;99.90;;;;;;5054437;28;20506;-77
2023/10/06 00:04:12;;;;;;;6.93;3.50;;;13.40;99.90;;;;;;5054421;28;20461;-78
2023/10/06 00:06:41;;;;;;;6.73;3.10;;;13.40;99.90;;;;;;5054724;28;20454;-78
2023/10/06 00:09:09;;;;;;;6.33;3.57;;;13.40;99.90;;;;;;5055338;28;20869;-78
2023/10/06 00:11:37;;;;;;;5.00;2.90;;;13.40;99.90;;;;;;5054954;28;20521;-77
2023/10/06 00:14:18;;;;;;;9.77;3.70;;;13.50;99.90;;;;;;5055069;28;20449;-78
2023/10/06 00:16:45;;;;;;;6.90;2.87;;;13.40;99.90;;;;;;5061052;28;20484;-78
2023/10/06 00:19:26;;;;;;;8.30;3.57;;;13.40;99.90;;;;;;5062148;28;20532;-78
2023/10/06 00:22:03;;;;;;;5.50;3.50;;;13.40;99.90;;;;;;5061205;28;20468;-77
2023/10/06 00:24:31;;;;;;;8.10;2.93;;;13.30;99.90;;;;;;5053873;28;20475;-78
2023/10/06 00:26:58;;;;;;;8.43;4.03;;;13.40;99.90;;;;;;5053255;28;20823;-76
2023/10/06 00:29:29;;;;;;;6.20;3.23;;;13.30;99.90;;;;;;5053159;28;20498;-77
2023/10/06 00:32:01;;;;;;;6.50;2.77;;;13.40;99.90;;;;;;5053236;28;20563;-78
2023/10/06 00:34:30;;;;;;;4.87;2.97;;;13.40;99.90;;;;;;5053442;28;20465;-78
2023/10/06 00:36:57;;;;;;;6.73;3.23;;;13.40;99.90;;;;;;5054085;28;20521;-77
2023/10/06 00:39:25;;;;;;;8.97;3.43;;;13.40;99.90;;;;;;5053450;28;20536;-78
2023/10/06 00:41:55;;;;;;;8.90;3.97;;;13.30;99.90;;;;;;5053881;28;20537;-77
2023/10/06 00:44:23;;;;;;;7.10;3.27;;;13.40;99.90;;;;;;5053664;28;20457;-77
2023/10/06 00:46:51;;;;;;;5.77;2.63;;;13.30;99.90;;;;;;5053678;28;20454;-78
2023/10/06 00:49:19;;;;;;;10.50;3.60;;;13.30;99.90;;;;;;5052970;28;20521;-78
2023/10/06 00:51:47;;;;;;;8.40;3.63;;;13.30;99.90;;;;;;5053702;28;20903;-77
2023/10/06 00:54:14;;;;;;;7.97;3.60;;;13.30;99.90;;;;;;5054399;28;20485;-77
2023/10/06 00:56:41;;;;;;;5.70;3.23;;;13.30;99.90;;;;;;5055268;28;20475;-78
2023/10/06 00:59:11;;;;;;;11.30;3.30;;;13.30;99.90;;;;;;5053854;28;20455;-79
2023/10/06 01:01:37;;;;;;;7.50;3.40;;;13.30;99.90;;;;;;5054550;28;20553;-78
2023/10/06 01:04:08;;;;;;;5.27;3.50;;;13.40;99.90;;;;;;5054199;28;20473;-77
2023/10/06 01:06:37;;;;;;;6.30;3.63;;;13.40;99.90;;;;;;5054512;28;20467;-78
2023/10/06 01:09:14;;;;;;;6.77;2.97;;;13.40;99.90;;;;;;5054430;28;20550;-78
2023/10/06 01:11:43;;;;;;;4.83;3.33;;;13.40;99.90;;;;;;5055537;28;20483;-78
2023/10/06 01:14:10;;;;;;;8.83;3.37;;;13.50;99.90;;;;;;5054460;28;20452;-77
2023/10/06 01:16:38;;;;;;;5.80;2.93;;;13.50;99.90;;;;;;5055181;28;20452;-78
2023/10/06 01:19:17;;;;;;;7.27;3.40;;;13.50;99.90;;;;;;5055260;28;20450;-78
2023/10/06 01:21:46;;;;;;;4.83;2.93;;;13.50;99.90;;;;;;5054704;28;20561;-78
2023/10/06 01:24:15;;;;;;;7.30;3.40;;;13.40;99.90;;;;;;5047627;28;20457;-78
2023/10/06 01:26:42;;;;;;;5.27;3.20;;;13.50;99.90;;;;;;5054981;28;20461;-78
2023/10/06 01:29:13;;;;;;;11.93;4.47;;;13.50;99.90;;;;;;5055269;28;20497;-78
2023/10/06 01:31:41;;;;;;;6.30;2.90;;;13.50;99.90;;;;;;5055351;28;21031;-79
2023/10/06 01:34:12;;;;;;;6.40;3.77;;;13.50;99.90;;;;;;5055546;28;20840;-78
2023/10/06 01:36:39;;;;;;;7.53;3.10;;;13.40;99.90;;;;;;5068281;28;20464;-77
2023/10/06 01:39:16;;;;;;;7.43;2.73;;;13.40;99.90;;;;;;5055223;28;20857;-77
2023/10/06 01:41:46;;;;;;;7.80;2.93;;;13.40;99.90;;;;;;5053668;28;20554;-77
2023/10/06 01:44:13;;;;;;;13.57;4.03;;;13.40;99.90;;;;;;5053830;28;20839;-77
2023/10/06 01:46:40;;;;;;;6.83;2.87;;;13.40;99.90;;;;;;5055030;28;20448;-78
2023/10/06 01:49:10;;;;;;;6.20;3.23;;;13.40;99.90;;;;;;5056415;28;20488;-78
2023/10/06 01:51:38;;;;;;;5.90;3.00;;;13.50;99.90;;;;;;5057111;28;20473;-77
2023/10/06 01:54:06;;;;;;;5.10;2.80;;;13.40;99.90;;;;;;5056666;28;20493;-77
2023/10/06 01:56:34;;;;;;;4.87;3.40;;;13.40;99.90;;;;;;5056996;28;20471;-76
2023/10/06 01:59:04;;;;;;;6.63;3.13;;;13.40;99.90;;;;;;5056993;28;20457;-77
2023/10/06 02:01:31;;;;;;;5.80;2.87;;;13.40;99.90;;;;;;5056769;28;20483;-77
2023/10/06 02:03:58;;;;;;;6.03;3.77;;;13.30;99.90;;;;;;5054275;28;20452;-76
2023/10/06 02:06:26;;;;;;;4.40;2.93;;;13.40;99.90;;;;;;5054139;28;20955;-76
2023/10/06 02:08:54;;;;;;;7.77;3.00;;;13.40;99.90;;;;;;5053613;28;21018;-77
2023/10/06 02:11:27;;;;;;;7.03;3.10;;;13.40;99.90;;;;;;5054224;28;20473;-76
2023/10/06 02:13:54;;;;;;;6.90;3.37;;;13.40;99.90;;;;;;5054253;28;20949;-76
2023/10/06 02:16:26;;;;;;;6.30;3.00;;;13.40;99.90;;;;;;5054238;28;20950;-77
2023/10/06 02:18:53;;;;;;;5.60;3.30;;;13.40;99.90;;;;;;5054395;28;20458;-76
2023/10/06 02:21:24;;;;;;;8.60;3.50;;;13.30;99.90;;;;;;5054229;28;20566;-77
2023/10/06 02:23:52;;;;;;;7.53;3.13;;;13.40;99.90;;;;;;5054772;28;20549;-76
2023/10/06 02:26:18;;;;;;;7.00;3.60;;;13.30;99.90;;;;;;5053875;28;20457;-76
2023/10/06 02:28:49;;;;;;;4.90;3.10;;;13.30;99.90;;;;;;5053847;28;21096;-75
2023/10/06 02:31:16;;;;;;;4.83;3.10;;;13.30;99.90;;;;;;5054714;28;20474;-79
2023/10/06 02:33:48;;;;;;;6.13;3.70;;;13.30;99.90;;;;;;5056166;28;20787;-78
2023/10/06 02:36:21;;;;;;;7.87;3.50;;;13.30;99.90;;;;;;5055236;28;20555;-79
2023/10/06 02:38:48;;;;;;;9.90;3.60;;;13.40;99.90;;;;;;5058450;28;21151;-79
2023/10/06 02:41:25;;;;;;;6.80;2.87;;;13.30;99.90;;;;;;5056807;28;20480;-77
2023/10/06 02:43:53;;;;;;;9.20;3.20;;;13.40;99.90;;;;;;5055655;28;20905;-78
2023/10/06 02:46:25;;;;;;;8.43;3.57;;;13.40;99.90;;;;;;5055577;28;20452;-78
2023/10/06 02:48:53;;;;;;;6.00;3.33;;;13.30;99.90;;;;;;5055258;28;20453;-77
2023/10/06 02:51:32;;;;;;;7.00;3.63;;;13.30;99.90;;;;;;5054999;28;20996;-77
2023/10/06 02:54:13;;;;;;;10.07;3.73;;;13.30;99.90;;;;;;5054505;28;20482;-77
2023/10/06 02:56:40;;;;;;;10.00;3.70;;;13.40;99.90;;;;;;5054356;28;20454;-77
2023/10/06 02:59:20;;;;;;;5.50;3.70;;;13.40;99.90;;;;;;5054355;28;20491;-76
2023/10/06 03:01:51;;;;;;;12.43;3.97;;;13.40;99.90;;;;;;5054168;28;20912;-77
2023/10/06 03:04:21;;;;;;;8.00;3.03;;;13.40;99.90;;;;;;5054609;28;20458;-77
2023/10/06 03:06:53;;;;;;;4.87;3.60;;;13.30;99.90;;;;;;5053827;28;20480;-77
2023/10/06 03:09:20;;;;;;;9.10;3.70;;;13.20;99.90;;;;;;5053623;28;20496;-77
2023/10/06 03:11:49;;;;;;;4.73;3.03;;;13.20;99.90;;;;;;5054384;28;20915;-77
2023/10/06 03:14:24;;;;;;;11.43;3.00;;;13.20;99.90;;;;;;5054992;28;20463;-77
2023/10/06 03:16:51;;;;;;;7.23;3.17;;;13.20;99.90;;;;;;5054302;28;20463;-77
2023/10/06 03:19:25;;;;;;;5.27;3.47;;;13.20;99.90;;;;;;5053272;28;20454;-77
2023/10/06 03:21:56;;;;;;;5.53;2.90;;;13.20;99.90;;;;;;5053945;28;20513;-78
2023/10/06 03:24:31;;;;;;;5.90;3.37;;;13.20;99.90;;;;;;5054895;28;20955;-76
2023/10/06 03:26:58;;;;;;;5.90;3.30;;;13.20;99.90;;;;;;5054239;28;20466;-77
2023/10/06 03:29:40;;;;;;;5.63;3.20;;;13.20;99.90;;;;;;5053750;28;20484;-78
2023/10/06 03:32:12;;;;;;;6.97;2.90;;;13.10;99.90;;;;;;5054153;28;20503;-77
2023/10/06 03:34:43;;;;;;;7.23;3.57;;;13.10;99.90;;;;;;5056030;28;20537;-78
2023/10/06 03:37:15;;;;;;;6.93;3.20;;;13.10;99.90;;;;;;5058370;28;20591;-75
2023/10/06 03:39:50;;;;;;;4.93;3.20;;;13.00;99.90;;;;;;5059874;28;20456;-78
2023/10/06 03:42:18;;;;;;;7.97;3.23;;;13.00;99.90;;;;;;5063041;28;20465;-77
2023/10/06 03:44:47;;;;;;;4.60;3.10;;;13.00;99.90;;;;;;5071342;28;20482;-78
2023/10/06 03:47:15;;;;;;;12.30;3.80;;;13.00;99.90;;;;;;5062610;28;20455;-76
2023/10/06 03:49:43;;;;;;;5.27;3.20;;;13.00;99.90;;;;;;5069428;28;20489;-78
2023/10/06 03:52:10;;;;;;;7.37;2.83;;;12.90;99.90;;;;;;5055601;28;20479;-76
2023/10/06 03:54:37;;;;;;;6.60;2.90;;;13.00;99.90;;;;;;5055010;28;20454;-77
2023/10/06 03:57:05;;;;;;;9.20;3.60;;;13.00;99.90;;;;;;5055388;28;20511;-77
2023/10/06 03:59:32;;;;;;;5.73;2.93;;;12.90;99.90;;;;;;5055525;28;20521;-78
2023/10/06 04:01:59;;;;;;;7.43;3.80;;;13.00;99.90;;;;;;5055912;28;20474;-77
2023/10/06 04:04:26;;;;;;;7.70;4.00;;;12.90;99.90;;;;;;5055404;28;20453;-77
2023/10/06 04:06:57;;;;;;;7.27;3.23;;;13.00;99.90;;;;;;5054750;28;20458;-76
2023/10/06 04:09:28;;;;;;;5.93;2.50;;;13.10;99.90;;;;;;5054525;28;20824;-77
2023/10/06 04:11:57;;;;;;;6.37;3.53;;;13.10;99.90;;;;;;5055315;28;20482;-77
2023/10/06 04:14:27;;;;;;;9.73;3.23;;;13.10;99.90;;;;;;5055058;28;20893;-77
2023/10/06 04:16:54;;;;;;;11.27;3.20;;;13.00;99.90;;;;;;5054288;28;20462;-76
2023/10/06 04:19:21;;;;;;;8.00;3.43;;;13.10;99.90;;;;;;5054182;28;21023;-76
2023/10/06 04:21:50;;;;;;;11.30;3.00;;;13.10;99.90;;;;;;5054137;28;20533;-78
2023/10/06 04:24:18;;;;;;;5.40;3.70;;;13.10;99.90;;;;;;5055140;28;20448;-77
2023/10/06 04:26:45;;;;;;;6.77;3.40;;;13.00;99.90;;;;;;5054438;28;20459;-76
2023/10/06 04:29:13;;;;;;;9.97;3.40;;;13.10;99.90;;;;;;5045875;28;20453;-77
2023/10/06 04:31:40;;;;;;;6.07;3.07;;;13.10;99.90;;;;;;5055024;28;21017;-77
2023/10/06 04:34:06;;;;;;;5.77;3.40;;;13.00;99.90;;;;;;5056054;28;20470;-77
2023/10/06 04:36:33;;;;;;;7.50;3.07;;;13.10;99.90;;;;;;5055767;28;20849;-77
2023/10/06 04:39:00;;;;;;;11.93;3.90;;;13.00;99.90;;;;;;5055270;28;20451;-76
2023/10/06 04:41:28;;;;;;;11.60;3.33;;;13.00;99.90;;;;;;5055708;28;20474;-77
2023/10/06 04:44:00;;;;;;;4.90;3.40;;;13.00;99.90;;;;;;5055650;28;20552;-78
2023/10/06 04:46:27;;;;;;;4.07;3.00;;;13.00;99.90;;;;;;5055992;28;20494;-77
2023/10/06 04:48:54;;;;;;;6.43;3.00;;;13.00;99.90;;;;;;5055391;28;20460;-78
2023/10/06 04:51:21;;;;;;;5.23;3.30;;;13.00;99.90;;;;;;5056625;28;20504;-77
2023/10/06 04:53:48;;;;;;;8.30;3.23;;;13.00;99.90;;;;;;5055471;28;20464;-77
2023/10/06 04:56:16;;;;;;;12.47;4.00;;;13.00;99.90;;;;;;5056107;28;21027;-78
2023/10/06 04:58:44;;;;;;;6.80;3.20;;;13.00;99.90;;;;;;5055558;28;20463;-77
2023/10/06 05:01:12;;;;;;;5.80;3.00;;;13.00;99.90;;;;;;5055458;28;20485;-77
2023/10/06 05:03:42;;;;;;;6.63;2.90;;;13.00;99.90;;;;;;5056193;28;20463;-77
2023/10/06 05:06:13;;;;;;;5.30;3.00;;;13.00;99.90;;;;;;5056586;28;20464;-77
2023/10/06 05:08:41;;;;;;;5.60;3.50;;;12.90;99.90;;;;;;5055740;28;20497;-78
2023/10/06 05:11:07;;;;;;;7.50;3.00;;;12.90;99.90;;;;;;5056260;28;21011;-77
2023/10/06 05:13:34;;;;;;;10.93;3.93;;;12.90;99.90;;;;;;5056592;28;20461;-77
2023/10/06 05:16:03;;;;;;;6.13;3.13;;;12.90;99.90;;;;;;5055512;28;20535;-76
2023/10/06 05:18:32;;;;;;;7.00;3.20;;;12.90;99.90;;;;;;5057032;28;20522;-77
2023/10/06 05:21:01;;;;;;;5.33;3.10;;;12.90;99.90;;;;;;5059775;28;20469;-78
2023/10/06 05:23:28;;;;;;;6.33;3.13;;;12.80;99.90;;;;;;5061360;28;20471;-78
2023/10/06 05:26:02;;;;;;;6.70;3.20;;;12.90;99.90;;;;;;5060800;28;20842;-78
2023/10/06 05:28:29;;;;;;;5.90;3.23;;;12.90;99.90;;;;;;5060622;28;20460;-77
2023/10/06 05:30:57;;;;;;;6.13;3.07;;;12.90;99.90;;;;;;5061716;28;20493;-79
2023/10/06 05:33:26;;;;;;;9.50;3.70;;;12.90;99.90;;;;;;5060188;28;20836;-78
2023/10/06 05:35:52;;;;;;;7.10;2.90;;;12.90;99.90;;;;;;5061011;28;20455;-77
2023/10/06 05:38:20;;;;;;;5.37;2.97;;;12.90;99.90;;;;;;5060616;28;20815;-78
2023/10/06 05:40:48;;;;;;;7.93;3.63;;;12.80;99.90;;;;;;5058592;28;20826;-78
2023/10/06 05:43:17;;;;;;;5.97;3.00;;;12.90;99.90;;;;;;5059863;28;20455;-78
2023/10/06 05:45:44;;;;;;;6.60;3.50;;;12.80;99.90;;;;;;5061528;28;20458;-78
2023/10/06 05:48:12;;;;;;;7.03;2.97;;;12.90;99.90;;;;;;5062362;28;20459;-79
2023/10/06 05:50:41;;;;;;;8.77;4.00;;;12.90;99.90;;;;;;5062021;28;20494;-78
2023/10/06 05:53:12;;;;;;;4.93;2.73;;;12.90;99.90;;;;;;5062077;28;20447;-78
2023/10/06 05:55:41;;;;;;;6.17;3.07;;;12.90;99.90;;;;;;5061989;28;20467;-78
2023/10/06 05:58:14;;;;;;;7.70;3.50;;;12.90;99.90;;;;;;5064731;28;20461;-77
2023/10/06 06:00:50;;;;;;;5.90;3.93;;;13.00;99.90;;;;;;5065407;28;20565;-78
2023/10/06 06:03:20;;;;;;;8.67;2.93;;;12.90;99.90;;;;;;5058608;28;20455;-78
2023/10/06 06:05:48;;;;;;;4.10;2.70;;;12.90;99.90;;;;;;5058285;28;20460;-78
2023/10/06 06:08:15;;;;;;;8.67;2.60;;;13.00;99.90;;;;;;5056704;28;20459;-78
2023/10/06 06:10:42;;;;;;;6.87;3.20;;;13.10;99.90;;;;;;5056915;28;20549;-78
2023/10/06 06:13:09;;;;;;;7.07;2.50;;;13.10;99.90;;;;;;5057559;28;20453;-77
2023/10/06 06:15:37;;;;;;;5.23;3.13;;;13.10;99.90;;;;;;5057117;28;20972;-76
2023/10/06 06:18:04;;;;;;;8.50;3.60;;;13.20;99.90;;;;;;5057698;28;20470;-78
2023/10/06 06:20:31;;;;;;;7.60;2.90;;;13.20;99.90;;;;;;5058176;28;20502;-78
2023/10/06 06:23:02;;;;;;;7.80;3.20;;;13.20;99.90;;;;;;5056332;28;20461;-77
2023/10/06 06:25:29;;;;;;;4.77;2.83;;;13.30;99.90;;;;;;5057662;28;20519;-77
2023/10/06 06:27:59;;;;;;;3.73;2.73;;;13.40;99.90;;;;;;5057968;28;20470;-78
2023/10/06 06:30:26;;;;;;;6.50;2.63;;;13.40;99.90;;;;;;5058370;28;20578;-78
2023/10/06 06:32:55;;;;;;;7.23;3.00;;;13.40;99.90;;;;;;5057746;28;20515;-78
2023/10/06 06:35:23;;;;;;;9.33;3.00;;;13.40;99.90;;;;;;5059197;28;20462;-78
2023/10/06 06:37:59;;;;;;;8.17;3.40;;;13.50;99.90;;;;;;5058278;28;21051;-78
2023/10/06 06:40:28;;;;;;;8.03;3.57;;;13.50;99.90;;;;;;5059229;28;20477;-78
2023/10/06 06:42:56;;;;;;;9.70;3.23;;;13.60;99.90;;;;;;5058722;28;20468;-78
2023/10/06 06:45:24;;;;;;;7.77;3.40;;;13.60;99.90;;;;;;5059212;28;20455;-78
2023/10/06 06:47:51;;;;;;;6.13;3.60;;;13.60;99.90;;;;;;5059135;28;20462;-78
2023/10/06 06:50:18;;;;;;;4.70;2.43;;;13.70;99.90;;;;;;5059347;28;20566;-78
2023/10/06 06:52:46;;;;;;;5.20;2.70;;;13.80;99.90;;;;;;5056017;28;20460;-78
2023/10/06 06:55:13;;;;;;;7.97;2.73;;;13.90;99.90;;;;;;5061577;28;20535;-77
2023/10/06 06:57:46;;;;;;;5.70;2.83;;;13.90;99.90;;;;;;5068799;28;20456;-78
2023/10/06 07:00:17;;;;;;;10.67;3.53;;;14.00;99.90;;;;;;5065746;28;21057;-79
2023/10/06 07:02:45;;;;;;;5.73;3.33;;;14.00;99.90;;;;;;5065092;28;20520;-78
2023/10/06 07:05:14;;;;;;;6.23;2.80;;;14.10;99.90;;;;;;5056032;28;20518;-78
2023/10/06 07:07:43;;;;;;;6.87;2.93;;;14.20;99.90;;;;;;5065612;28;20447;-78
2023/10/06 07:10:13;;;;;;;5.30;3.27;;;14.20;99.90;;;;;;5066388;28;20506;-77
2023/10/06 07:12:40;;;;;;;4.50;2.50;;;14.30;99.90;;;;;;5068413;28;20485;-78
2023/10/06 07:15:15;;;;;;;7.93;3.10;;;14.30;99.90;;;;;;5059431;28;20456;-78
2023/10/06 07:17:46;;;;;;;7.30;2.93;;;14.40;99.90;;;;;;5056011;28;20458;-79
2023/10/06 07:20:17;;;;;;;6.00;2.70;;;14.50;99.90;;;;;;5055670;28;20468;-79
2023/10/06 07:22:45;;;;;;;6.13;2.70;;;14.60;99.90;;;;;;5064745;28;20454;-78
2023/10/06 07:25:15;;;;;;;7.73;2.80;;;14.60;99.90;;;;;;5065553;28;20452;-78
2023/10/06 07:27:43;;;;;;;8.10;3.03;;;14.70;99.90;;;;;;5067328;28;20477;-78
2023/10/06 07:30:14;;;;;;;7.70;3.10;;;14.60;99.90;;;;;;5066807;28;20861;-78
2023/10/06 07:32:42;;;;;;;6.17;2.63;;;14.70;99.90;;;;;;5058595;28;21115;-79
2023/10/06 07:35:15;;;;;;;9.30;3.37;;;14.80;99.90;;;;;;5056315;28;20471;-78
2023/10/06 07:37:43;;;;;;;6.43;2.83;;;14.80;99.90;;;;;;5054361;28;20438;-78
2023/10/06 07:40:13;;;;;;;5.50;2.67;;;14.80;99.90;;;;;;5055012;28;20788;-79
2023/10/06 07:42:41;;;;;;;7.33;2.80;;;14.80;99.90;;;;;;5056316;28;20460;-79
2023/10/06 07:45:09;;;;;;;6.30;2.63;;;14.90;99.90;;;;;;5056172;28;20448;-78
2023/10/06 07:47:38;;;;;;;6.30;2.63;;;14.90;99.90;;;;;;5055000;28;22300;-78
2023/10/06 07:50:06;;;;;;;3.30;1.90;;;15.00;99.90;;;;;;5057439;28;20945;-78
2023/10/06 07:52:36;;;;;;;9.43;2.60;;;15.10;99.90;;;;;;5056230;28;20515;-78
2023/10/06 07:55:05;;;;;;;7.93;2.67;;;15.10;99.90;;;;;;5055273;28;20444;-79
2023/10/06 07:57:33;;;;;;;5.53;2.90;;;15.20;99.90;;;;;;5055590;28;20973;-79
2023/10/06 08:00:04;;;;;;;6.23;3.03;;;15.20;99.90;;;;;;5060966;28;20515;-79
2023/10/06 08:02:30;;;;;;;7.00;2.70;;;15.30;99.90;;;;;;5056457;28;20451;-78
2023/10/06 08:04:59;;;;;;;5.70;2.43;;;15.30;99.90;;;;;;5056743;28;20547;-77
2023/10/06 08:07:27;;;;;;;6.20;3.10;;;15.30;99.90;;;;;;5055442;28;20575;-78
2023/10/06 08:09:55;;;;;;;4.50;2.40;;;15.20;99.90;;;;;;5058537;28;20553;-79
2023/10/06 08:12:23;;;;;;;7.03;2.93;;;15.20;99.90;;;;;;5058121;28;20491;-78
2023/10/06 08:14:51;;;;;;;6.07;3.00;;;15.20;99.90;;;;;;5056266;28;20448;-77
2023/10/06 08:17:19;;;;;;;6.83;2.80;;;15.20;99.90;;;;;;5054587;28;20451;-78
2023/10/06 08:19:47;;;;;;;5.77;3.10;;;15.20;99.90;;;;;;5056913;28;20455;-77
2023/10/06 08:22:15;;;;;;;8.07;3.20;;;15.20;99.90;;;;;;5049701;28;20565;-78
2023/10/06 08:24:43;;;;;;;5.20;2.70;;;15.20;99.90;;;;;;5062446;28;20538;-79
2023/10/06 08:27:11;;;;;;;4.27;2.50;;;15.10;99.90;;;;;;5063473;28;20521;-77
2023/10/06 08:29:38;;;;;;;5.53;2.80;;;15.10;99.90;;;;;;5065729;28;20456;-80
2023/10/06 08:32:06;;;;;;;5.20;2.80;;;15.20;99.90;;;;;;5062138;28;20522;-79
2023/10/06 08:34:39;;;;;;;5.83;2.50;;;15.20;99.90;;;;;;5059115;28;20460;-78
2023/10/06 08:37:10;;;;;;;5.27;2.87;;;15.30;99.90;;;;;;5071566;28;20450;-79
2023/10/06 08:39:39;;;;;;;8.70;2.80;;;15.40;99.90;;;;;;5056525;28;20459;-80
2023/10/06 08:42:10;;;;;;;4.50;2.60;;;15.40;99.90;;;;;;5050798;28;21650;-79
2023/10/06 08:44:38;;;;;;;4.10;2.40;;;15.50;99.90;;;;;;5052992;28;20448;-78
2023/10/06 08:47:09;;;;;;;6.43;2.50;;;15.60;99.90;;;;;;5055604;28;20444;-79
2023/10/06 08:49:37;;;;;;;9.57;2.87;;;15.60;99.90;;;;;;5049788;28;20464;-79
2023/10/06 08:52:06;;;;;;;9.50;3.47;;;15.70;99.90;;;;;;5055414;28;20487;-79
2023/10/06 08:54:34;;;;;;;7.13;3.10;;;15.70;99.90;;;;;;5052790;28;20462;-77
2023/10/06 08:57:04;;;;;;;8.27;2.87;;;15.80;99.90;;;;;;5065659;28;20488;-79
2023/10/06 08:59:32;;;;;;;8.80;3.50;;;15.90;99.90;;;;;;5068989;28;20457;-79
2023/10/06 09:02:00;;;;;;;6.23;2.50;;;16.00;99.90;;;;;;5062028;28;20469;-79
2023/10/06 09:04:34;;;;;;;8.37;2.80;;;16.10;99.90;;;;;;5066820;28;20456;-79
2023/10/06 09:07:08;;;;;;;5.93;2.63;;;16.20;99.90;;;;;;5066610;28;20447;-79
2023/10/06 09:09:36;;;;;;;7.23;3.33;;;16.20;99.90;;;;;;5073590;28;20490;-80
2023/10/06 09:12:05;;;;;;;6.03;3.43;;;16.30;99.90;;;;;;5067560;28;20498;-79
2023/10/06 09:14:32;;;;;;;5.10;2.63;;;16.30;99.90;;;;;;5066955;28;20531;-79
2023/10/06 09:17:01;;;;;;;9.93;3.60;;;16.40;99.90;;;;;;5066229;28;20896;-77
2023/10/06 09:19:46;;;;;;;5.57;3.00;;;16.50;99.90;;;;;;5069514;28;20542;-78
2023/10/06 09:22:14;;;;;;;8.20;2.60;;;16.60;99.90;;;;;;5052205;28;20451;-79
2023/10/06 09:24:40;;;;;;;7.17;2.73;;;16.70;99.90;;;;;;5058391;28;20452;-79
2023/10/06 09:27:25;;;;;;;4.80;2.80;;;16.60;99.90;;;;;;5056798;28;20445;-78
2023/10/06 09:29:59;;;;;;;7.13;3.53;;;16.80;99.90;;;;;;5053821;28;20453;-79
2023/10/06 09:32:26;;;;;;;6.23;2.67;;;16.90;99.90;;;;;;5050417;28;20483;-78
2023/10/06 09:34:57;;;;;;;8.97;2.60;;;17.00;99.90;;;;;;5056741;28;20460;-79
2023/10/06 09:37:24;;;;;;;7.70;3.20;;;17.10;99.90;;;;;;5057103;28;20454;-78
2023/10/06 09:40:10;;;;;;;11.83;3.70;;;17.10;99.90;;;;;;5057805;28;20461;-79
2023/10/06 09:42:39;;;;;;;7.70;3.50;;;17.20;99.90;;;;;;5057785;28;20456;-79
2023/10/06 09:45:11;;;;;;;5.90;3.33;;;17.30;99.90;;;;;;5059561;28;20929;-79
2023/10/06 09:47:46;;;;;;;6.73;3.10;;;17.30;99.90;;;;;;5057301;28;20478;-79
2023/10/06 09:50:14;;;;;;;6.40;3.53;;;17.40;99.90;;;;;;5054071;28;20550;-79
2023/10/06 09:52:44;;;;;;;5.73;2.87;;;17.40;99.90;;;;;;5058995;28;20492;-79
2023/10/06 09:55:11;;;;;;;9.03;3.30;;;17.60;99.90;;;;;;5056490;28;20475;-79
2023/10/06 09:57:43;;;;;;;9.07;3.07;;;17.60;99.90;;;;;;5056724;28;20460;-79
2023/10/06 10:00:16;;;;;;;9.80;3.40;;;17.70;99.90;;;;;;5055695;28;20478;-79
2023/10/06 10:02:45;;;;;;;7.10;2.93;;;17.80;99.90;;;;;;5058100;28;20448;-79
2023/10/06 10:05:13;;;;;;;6.60;2.70;;;18.00;99.90;;;;;;5060937;28;20463;-80
2023/10/06 10:07:40;;;;;;;6.67;3.00;;;18.10;99.90;;;;;;5055355;28;20454;-79
2023/10/06 10:10:10;;;;;;;4.00;2.60;;;18.00;99.90;;;;;;5056163;28;20459;-78
2023/10/06 10:12:52;;;;;;;7.60;3.57;;;18.00;99.90;;;;;;5055147;28;20930;-79
2023/10/06 10:15:32;;;;;;;13.10;3.27;;;17.90;99.90;;;;;;5060518;28;21001;-79
2023/10/06 10:18:06;;;;;;;12.30;3.80;;;18.00;99.90;;;;;;5055615;28;20439;-79
2023/10/06 10:20:34;;;;;;;14.73;4.60;;;18.00;99.90;;;;;;5057583;28;20490;-78
2023/10/06 10:23:03;;;;;;;7.50;3.10;;;18.00;99.90;;;;;;5058689;28;20474;-78
2023/10/06 10:25:31;;;;;;;7.60;2.93;;;18.00;99.90;;;;;;5051704;28;20469;-78
2023/10/06 10:28:17;;;;;;;7.77;3.70;;;18.10;99.90;;;;;;5054352;28;20458;-77
2023/10/06 10:30:56;;;;;;;12.57;2.50;;;18.10;99.90;;;;;;5052147;28;20533;-78
2023/10/06 10:33:23;;;;;;;5.83;2.67;;;18.40;99.90;;;;;;5055734;28;20906;-79
2023/10/06 10:36:21;;;;;;;8.60;3.03;;;18.50;99.90;;;;;;5055582;28;20450;-77
2023/10/06 10:39:00;;;;;;;5.13;2.70;;;18.60;99.90;;;;;;5051981;28;20550;-79
2023/10/06 10:41:31;;;;;;;5.80;2.97;;;18.30;99.90;;;;;;5054412;28;20493;-77
2023/10/06 10:44:05;;;;;;;4.33;2.53;;;18.30;99.90;;;;;;5054823;28;20455;-78
2023/10/06 10:46:33;;;;;;;9.23;3.63;;;18.30;99.90;;;;;;5055266;28;20542;-78
2023/10/06 10:49:02;;;;;;;7.27;2.93;;;18.10;99.90;;;;;;5055924;28;20460;-78
2023/10/06 10:51:33;;;;;;;5.70;2.43;;;18.20;99.90;;;;;;5056731;28;20475;-78
2023/10/06 10:54:01;;;;;;;6.47;2.57;;;18.20;99.90;;;;;;5059449;28;21022;-79
2023/10/06 10:56:36;;;;;;;5.10;2.37;;;18.30;99.90;;;;;;5060350;28;20455;-79
2023/10/06 10:59:05;;;;;;;8.07;2.50;;;18.30;99.90;;;;;;5060552;28;20459;-79
2023/10/06 11:01:35;;;;;;;10.80;3.17;;;18.50;99.90;;;;;;5057669;28;20485;-79
2023/10/06 11:04:25;;;;;;;7.27;2.87;;;18.50;99.90;;;;;;5056451;28;20459;-79
2023/10/06 11:06:55;;;;;;;12.03;2.87;;;18.60;99.90;;;;;;5055346;28;20459;-78
2023/10/06 11:09:28;;;;;;;7.77;2.77;;;18.80;99.90;;;;;;5056978;28;20868;-79
2023/10/06 11:11:56;;;;;;;8.03;3.27;;;19.10;99.90;;;;;;5055569;28;20500;-79
2023/10/06 11:14:27;;;;;;;5.20;2.90;;;19.80;99.90;;;;;;5055457;28;20480;-80
2023/10/06 11:17:01;;;;;;;7.10;2.50;;;20.60;99.90;;;;;;5055675;28;20555;-79
2023/10/06 11:19:29;;;;;;;5.67;2.53;;;21.40;99.90;;;;;;5054506;28;20465;-80
2023/10/06 11:21:57;;;;;;;6.27;2.73;;;21.80;99.90;;;;;;5055617;28;20483;-80
2023/10/06 11:24:28;;;;;;;9.93;3.17;;;21.80;99.90;;;;;;5057211;28;20460;-79
2023/10/06 11:26:55;;;;;;;6.37;2.70;;;22.00;99.90;;;;;;5058822;28;20944;-79
2023/10/06 11:29:30;;;;;;;5.50;2.70;;;22.40;99.90;;;;;;5054596;28;20451;-80
2023/10/06 11:31:59;;;;;;;6.33;2.93;;;22.70;99.90;;;;;;5056417;28;20586;-79
2023/10/06 11:34:26;;;;;;;9.57;3.13;;;22.50;99.90;;;;;;5055651;28;20539;-80
2023/10/06 11:36:54;;;;;;;4.23;2.30;;;22.70;99.90;;;;;;5054787;28;20460;-78
2023/10/06 11:39:23;;;;;;;5.73;2.77;;;22.80;99.90;;;;;;5056118;28;20462;-80
2023/10/06 11:41:55;;;;;;;8.10;2.27;;;23.10;99.90;;;;;;5055307;28;20464;-80
2023/10/06 11:44:23;;;;;;;6.07;2.50;;;23.60;99.90;;;;;;5055953;28;20456;-79
2023/10/06 11:46:56;;;;;;;7.07;2.60;;;24.20;99.90;;;;;;5055264;28;20466;-79
2023/10/06 11:49:23;;;;;;;5.87;2.50;;;24.70;99.90;;;;;;5054970;28;20458;-78
2023/10/06 11:51:51;;;;;;;4.30;2.60;;;24.60;99.90;;;;;;5053531;28;21113;-78
2023/10/06 11:54:17;;;;;;;5.07;2.47;;;24.70;99.90;;;;;;5054461;28;20522;-80
2023/10/06 11:56:48;;;;;;;5.07;2.53;;;25.10;99.90;;;;;;5054611;28;20459;-79
2023/10/06 11:59:20;;;;;;;10.10;3.37;;;25.00;99.90;;;;;;5052709;28;20826;-78
2023/10/06 12:01:46;;;;;;;7.20;2.90;;;25.20;99.90;;;;;;5054314;28;20535;-79
2023/10/06 12:04:30;;;;;;;4.40;2.60;;;25.10;99.90;;;;;;5051656;28;20868;-79
2023/10/06 12:06:57;;;;;;;5.37;2.67;;;25.10;99.90;;;;;;5052054;28;20493;-77
2023/10/06 12:09:24;;;;;;;5.07;3.10;;;24.60;99.90;;;;;;5051316;28;20551;-79
2023/10/06 12:11:53;;;;;;;5.77;3.10;;;24.20;99.90;;;;;;5051794;28;20799;-78
2023/10/06 12:14:20;;;;;;;6.27;2.80;;;23.70;99.90;;;;;;5052997;28;20456;-79
2023/10/06 12:16:48;;;;;;;4.87;2.30;;;23.00;99.90;;;;;;5054022;28;20452;-80
2023/10/06 12:19:15;;;;;;;6.50;2.70;;;22.50;99.90;;;;;;5053071;28;20456;-79
2023/10/06 12:21:44;;;;;;;5.43;2.73;;;22.40;99.90;;;;;;5053115;28;20529;-79
2023/10/06 12:24:11;;;;;;;7.33;2.37;;;22.30;99.90;;;;;;5053888;28;20452;-80
2023/10/06 12:26:39;;;;;;;7.07;2.67;;;22.30;99.90;;;;;;5054648;28;20476;-79
2023/10/06 12:29:06;;;;;;;8.10;3.20;;;22.60;99.90;;;;;;5053627;28;20455;-79
2023/10/06 12:31:33;;;;;;;7.70;3.10;;;23.20;99.90;;;;;;5056155;28;20468;-78
2023/10/06 12:34:03;;;;;;;7.37;3.80;;;23.90;99.90;;;;;;5057275;28;20586;-79
2023/10/06 12:36:31;;;;;;;8.90;2.63;;;24.20;99.90;;;;;;5054042;28;20452;-79
2023/10/06 12:39:00;;;;;;;11.77;2.87;;;24.20;99.90;;;;;;5053072;28;20891;-80
2023/10/06 12:41:27;;;;;;;6.37;3.30;;;24.50;99.90;;;;;;5053820;28;20475;-80
2023/10/06 12:43:54;;;;;;;6.90;2.67;;;24.80;99.90;;;;;;5053525;28;20455;-80
2023/10/06 12:46:20;;;;;;;5.00;2.23;;;24.90;99.90;;;;;;5054160;28;20835;-80
2023/10/06 12:48:47;;;;;;;6.10;2.80;;;24.80;99.90;;;;;;5053866;28;20447;-80
2023/10/06 12:51:14;;;;;;;12.77;3.27;;;25.10;99.90;;;;;;5053669;28;20476;-79
2023/10/06 12:53:41;;;;;;;5.60;2.93;;;24.90;99.90;;;;;;5053531;28;20498;-79
2023/10/06 12:56:09;;;;;;;6.77;2.53;;;25.50;99.90;;;;;;5052606;28;20456;-79
2023/10/06 12:58:36;;;;;;;6.60;3.13;;;25.80;99.90;;;;;;5053934;28;20807;-80